Time;durP1;ratioP1;P1;durP2;ratioP2;P2;SDS_P1;SDS_P2;PMS_P1;PMS_P2;Temp;Humidity;BMP_temperature;BMP_pressure;BME280_temperature;BME280_humidity;BME280_pressure;Samples;Min_cycle;Max_cycle;Signal;HPM_P1;HPM_P2
2023/12/11 00:01:04;;;;;;;9.10;1.77;;;7.40;99.90;;;;;;6282866;22;20152;-84
2023/12/11 00:03:30;;;;;;;4.53;1.30;;;7.50;99.90;;;;;;6283024;22;20156;-84
2023/12/11 00:05:56;;;;;;;5.40;1.53;;;7.50;99.90;;;;;;6282665;22;20159;-85
2023/12/11 00:08:22;;;;;;;8.13;1.70;;;7.50;99.90;;;;;;6282734;22;20213;-84
2023/12/11 00:10:48;;;;;;;11.80;2.20;;;7.50;99.90;;;;;;6282698;22;20162;-83
2023/12/11 00:13:14;;;;;;;7.37;1.70;;;7.50;99.90;;;;;;6282706;22;20238;-84
2023/12/11 00:15:40;;;;;;;5.30;1.90;;;7.60;99.90;;;;;;6309198;22;20152;-91
2023/12/11 00:18:05;;;;;;;7.37;1.80;;;7.70;99.90;;;;;;6282621;22;20190;-89
2023/12/11 00:20:32;;;;;;;5.30;2.00;;;7.70;99.90;;;;;;6310012;22;20148;-85
2023/12/11 00:22:58;;;;;;;9.67;1.90;;;7.70;99.90;;;;;;6309783;22;20148;-84
2023/12/11 00:25:24;;;;;;;11.03;2.30;;;7.90;99.90;;;;;;6282275;22;20453;-87
2023/12/11 00:27:52;;;;;;;11.23;2.60;;;7.90;99.90;;;;;;6309766;22;20166;-85
2023/12/11 00:30:17;;;;;;;9.23;2.63;;;8.00;99.90;;;;;;6282392;22;20590;-89
2023/12/11 00:32:43;;;;;;;8.93;2.40;;;8.10;99.90;;;;;;6309873;22;20168;-85
2023/12/11 00:35:09;;;;;;;12.13;2.42;;;8.20;99.90;;;;;;6282551;22;20187;-85
2023/12/11 00:37:35;;;;;;;12.45;2.40;;;8.20;99.90;;;;;;6309795;22;20151;-90
2023/12/11 00:40:01;;;;;;;9.80;2.60;;;8.30;99.90;;;;;;6282192;22;20148;-86
2023/12/11 00:42:26;;;;;;;14.93;3.10;;;8.40;99.90;;;;;;6282496;22;20178;-86
2023/12/11 00:44:52;;;;;;;10.15;2.50;;;8.50;99.90;;;;;;6282199;22;20152;-88
2023/12/11 00:47:18;;;;;;;12.40;2.42;;;8.50;99.90;;;;;;6282446;22;20188;-84
2023/12/11 00:49:44;;;;;;;9.13;2.40;;;8.60;99.90;;;;;;6282493;22;20193;-84
2023/12/11 00:52:09;;;;;;;8.43;1.80;;;8.60;99.90;;;;;;6282274;22;20509;-87
2023/12/11 00:54:35;;;;;;;15.27;2.67;;;8.60;99.90;;;;;;6309440;22;20575;-88
2023/12/11 00:57:02;;;;;;;10.43;2.55;;;8.60;99.90;;;;;;6281828;22;20163;-90
2023/12/11 00:59:28;;;;;;;11.45;2.47;;;8.70;99.90;;;;;;6282330;22;20151;-86
2023/12/11 01:01:53;;;;;;;9.48;2.25;;;8.70;99.90;;;;;;6309582;22;20152;-87
2023/12/11 01:04:19;;;;;;;12.05;2.40;;;8.70;99.90;;;;;;6282309;22;20202;-89
2023/12/11 01:06:45;;;;;;;11.75;2.28;;;8.80;99.90;;;;;;6309426;22;20201;-85
2023/12/11 01:09:12;;;;;;;13.07;2.88;;;8.80;99.90;;;;;;6282159;22;20195;-86
2023/12/11 01:11:39;;;;;;;19.35;3.08;;;8.80;99.90;;;;;;6281287;22;20156;-88
2023/12/11 01:14:05;;;;;;;13.65;2.60;;;8.80;99.90;;;;;;6281881;22;20238;-89
2023/12/11 01:16:31;;;;;;;10.50;2.20;;;8.70;99.90;;;;;;6281983;22;20176;-86
2023/12/11 01:18:57;;;;;;;8.10;2.00;;;8.70;99.90;;;;;;6281876;22;20205;-87
2023/12/11 01:21:23;;;;;;;11.93;2.80;;;8.80;99.90;;;;;;6309274;22;20147;-85
2023/12/11 01:23:49;;;;;;;13.15;2.55;;;8.80;99.90;;;;;;6309071;22;20198;-84
2023/12/11 01:26:14;;;;;;;12.73;2.38;;;8.80;99.90;;;;;;6308971;22;20174;-86
2023/12/11 01:28:40;;;;;;;15.07;2.80;;;8.80;99.90;;;;;;6308792;22;20168;-83
2023/12/11 01:31:06;;;;;;;11.45;2.65;;;8.80;99.90;;;;;;6281621;22;20160;-83
2023/12/11 01:33:32;;;;;;;14.23;2.80;;;8.80;99.90;;;;;;6309471;22;20558;-84
2023/12/11 01:35:58;;;;;;;14.65;2.55;;;8.70;99.90;;;;;;6281416;22;20160;-82
2023/12/11 01:38:24;;;;;;;18.67;2.78;;;8.80;99.90;;;;;;6281596;22;20178;-84
2023/12/11 01:40:50;;;;;;;9.55;2.60;;;8.80;99.90;;;;;;6308935;22;20565;-84
2023/12/11 01:43:20;;;;;;;11.93;2.58;;;8.90;99.90;;;;;;6308946;22;20154;-83
2023/12/11 01:45:53;;;;;;;15.75;2.90;;;8.80;99.90;;;;;;6308789;22;20143;-83
2023/12/11 01:48:19;;;;;;;13.20;2.58;;;8.90;99.90;;;;;;6307698;22;20189;-83
2023/12/11 01:50:44;;;;;;;15.25;2.78;;;8.90;99.90;;;;;;6308725;22;20595;-86
2023/12/11 01:53:10;;;;;;;9.70;2.17;;;8.80;99.90;;;;;;6281402;22;20247;-83
2023/12/11 01:55:37;;;;;;;15.50;2.33;;;8.80;99.90;;;;;;6308837;22;20148;-84
2023/12/11 01:58:04;;;;;;;15.15;3.15;;;8.80;99.90;;;;;;6281545;22;20444;-83
2023/12/11 02:00:31;;;;;;;15.60;3.00;;;8.70;99.90;;;;;;6280137;22;20155;-83
2023/12/11 02:02:56;;;;;;;14.93;2.97;;;8.70;99.90;;;;;;6280846;22;20247;-84
2023/12/11 02:05:22;;;;;;;15.60;2.60;;;8.70;99.90;;;;;;6281035;22;20237;-84
2023/12/11 02:07:49;;;;;;;15.05;2.85;;;8.80;99.90;;;;;;6308638;22;20151;-83
2023/12/11 02:10:15;;;;;;;21.67;3.30;;;8.70;99.90;;;;;;6281323;22;20227;-84
2023/12/11 02:12:42;;;;;;;11.15;2.92;;;8.70;99.90;;;;;;6308524;22;20556;-84
2023/12/11 02:15:08;;;;;;;14.82;2.65;;;8.70;99.90;;;;;;6308391;22;20155;-84
2023/12/11 02:17:34;;;;;;;15.80;2.85;;;8.70;99.90;;;;;;6308478;22;20167;-83
2023/12/11 02:20:00;;;;;;;16.43;2.83;;;8.70;99.90;;;;;;6281312;22;20156;-85
2023/12/11 02:22:26;;;;;;;16.58;3.13;;;8.70;99.90;;;;;;6308669;22;20155;-84
2023/12/11 02:24:58;;;;;;;17.55;3.00;;;8.80;99.90;;;;;;6308833;22;20198;-83
2023/12/11 02:27:25;;;;;;;17.05;3.20;;;8.80;99.90;;;;;;6281265;22;20160;-84
2023/12/11 02:29:53;;;;;;;15.35;3.10;;;8.90;99.90;;;;;;6280952;22;20187;-82
2023/12/11 02:32:19;;;;;;;19.20;3.35;;;8.80;99.90;;;;;;6280053;22;20566;-82
2023/12/11 02:34:47;;;;;;;16.42;3.22;;;8.90;99.90;;;;;;6281047;22;20234;-85
2023/12/11 02:37:14;;;;;;;20.30;3.40;;;8.90;99.90;;;;;;6281065;22;20230;-84
2023/12/11 02:39:39;;;;;;;14.05;2.58;;;8.80;99.90;;;;;;6310036;22;20148;-84
2023/12/11 02:42:05;;;;;;;18.50;2.97;;;8.80;99.90;;;;;;6310618;22;20582;-84
2023/12/11 02:44:31;;;;;;;19.27;2.70;;;8.80;99.90;;;;;;6310063;22;20555;-84
2023/12/11 02:46:57;;;;;;;18.92;3.33;;;8.70;99.90;;;;;;6310373;22;20175;-83
2023/12/11 02:49:22;;;;;;;15.63;3.47;;;8.70;99.90;;;;;;6282982;22;20196;-83
2023/12/11 02:51:48;;;;;;;16.92;3.00;;;8.70;99.90;;;;;;6283213;22;20206;-83
2023/12/11 02:54:14;;;;;;;18.73;4.18;;;8.80;99.90;;;;;;6310549;22;20231;-84
2023/12/11 02:56:40;;;;;;;19.57;3.17;;;8.80;99.90;;;;;;6283065;22;20560;-84
2023/12/11 02:59:06;;;;;;;14.27;2.80;;;8.80;99.90;;;;;;6310268;22;20159;-84
2023/12/11 03:01:32;;;;;;;14.25;2.78;;;8.80;99.90;;;;;;6282444;22;20156;-85
2023/12/11 03:03:57;;;;;;;20.67;3.28;;;8.80;99.90;;;;;;6282990;22;20156;-83
2023/12/11 03:06:23;;;;;;;18.23;3.80;;;8.90;99.90;;;;;;6282814;22;20202;-83
2023/12/11 03:08:49;;;;;;;14.82;2.83;;;8.90;99.90;;;;;;6283076;22;20191;-83
2023/12/11 03:11:15;;;;;;;19.23;3.05;;;8.90;99.90;;;;;;6282993;22;20574;-84
2023/12/11 03:13:41;;;;;;;19.10;2.95;;;8.80;99.90;;;;;;6310137;22;20158;-83
2023/12/11 03:16:11;;;;;;;17.90;3.08;;;8.90;99.90;;;;;;6282542;22;20461;-83
2023/12/11 03:18:37;;;;;;;19.98;3.35;;;8.80;99.90;;;;;;6310117;22;20603;-84
2023/12/11 03:21:03;;;;;;;21.73;3.65;;;8.80;99.90;;;;;;6282767;22;20194;-84
2023/12/11 03:23:29;;;;;;;22.13;3.15;;;8.90;99.90;;;;;;6310312;22;20558;-83
2023/12/11 03:25:55;;;;;;;16.83;3.47;;;8.90;99.90;;;;;;6281890;22;20152;-83
2023/12/11 03:28:21;;;;;;;17.50;3.58;;;8.80;99.90;;;;;;6310102;22;20176;-84
2023/12/11 03:30:47;;;;;;;16.42;3.15;;;8.80;99.90;;;;;;6309733;22;20578;-83
2023/12/11 03:33:27;;;;;;;19.05;3.30;;;8.90;99.90;;;;;;6272399;22;20177;31
2023/12/11 03:35:53;;;;;;;14.88;2.80;;;8.80;99.90;;;;;;6131119;23;20203;-83
2023/12/11 03:38:19;;;;;;;19.10;3.65;;;8.90;99.90;;;;;;6156952;23;20162;-83
2023/12/11 03:40:45;;;;;;;18.73;3.90;;;8.90;99.90;;;;;;6133384;23;20163;-84
2023/12/11 03:43:11;;;;;;;15.00;3.08;;;8.90;99.90;;;;;;6157599;23;20460;-85
2023/12/11 03:45:36;;;;;;;20.60;3.97;;;8.80;99.90;;;;;;6157541;23;20167;-85
2023/12/11 03:48:02;;;;;;;19.10;3.25;;;8.80;99.90;;;;;;6157556;23;20179;-84
2023/12/11 03:50:28;;;;;;;17.13;3.75;;;8.70;99.90;;;;;;6157023;23;20164;-84
2023/12/11 03:52:54;;;;;;;22.60;3.63;;;8.80;99.90;;;;;;6158973;23;20555;-84
2023/12/11 03:55:20;;;;;;;19.13;3.50;;;8.80;99.90;;;;;;6132952;23;20170;-85
2023/12/11 03:57:45;;;;;;;17.33;2.85;;;8.80;99.90;;;;;;6157679;23;20155;-83
2023/12/11 04:00:12;;;;;;;15.15;3.67;;;8.70;99.90;;;;;;6157401;23;20235;-85
2023/12/11 04:02:38;;;;;;;21.98;3.85;;;8.70;99.90;;;;;;6157438;23;20159;-85
2023/12/11 04:05:04;;;;;;;16.50;3.50;;;8.70;99.90;;;;;;6156914;23;20449;-85
2023/12/11 04:07:30;;;;;;;17.17;3.95;;;8.60;99.90;;;;;;6156639;23;20182;-84
2023/12/11 04:09:56;;;;;;;24.30;4.82;;;8.60;99.90;;;;;;6157241;23;20290;-85
2023/12/11 04:12:22;;;;;;;27.67;4.22;;;8.60;99.90;;;;;;6159122;23;20214;-85
2023/12/11 04:14:48;;;;;;;17.77;3.53;;;8.60;99.90;;;;;;6159147;23;20162;-84
2023/12/11 04:17:15;;;;;;;23.70;4.60;;;8.60;99.90;;;;;;6157270;23;20459;-84
2023/12/11 04:19:41;;;;;;;19.13;3.80;;;8.60;99.90;;;;;;6157482;23;20155;-84
2023/12/11 04:22:06;;;;;;;20.88;3.90;;;8.60;99.90;;;;;;6157253;23;20155;-83
2023/12/11 04:24:32;;;;;;;23.63;4.07;;;8.60;99.90;;;;;;6158667;23;20155;-84
2023/12/11 04:26:58;;;;;;;18.70;4.50;;;8.60;99.90;;;;;;6132442;23;20519;-84
2023/12/11 04:29:24;;;;;;;21.95;3.88;;;8.60;99.90;;;;;;6158831;23;20233;-84
2023/12/11 04:31:50;;;;;;;19.90;4.00;;;8.50;99.90;;;;;;6157369;23;20571;-84
2023/12/11 04:34:15;;;;;;;19.42;3.78;;;8.50;99.90;;;;;;6156992;23;20207;-84
2023/12/11 04:36:43;;;;;;;15.13;3.88;;;8.40;99.90;;;;;;6132553;23;20183;-85
2023/12/11 04:39:09;;;;;;;20.25;4.35;;;8.40;99.90;;;;;;6156875;23;20162;-83
2023/12/11 04:41:35;;;;;;;19.70;3.95;;;8.40;99.90;;;;;;6157179;23;20155;-84
2023/12/11 04:44:01;;;;;;;22.98;4.13;;;8.30;99.90;;;;;;6157226;23;20159;-84
2023/12/11 04:46:27;;;;;;;17.60;4.03;;;8.30;99.90;;;;;;6156719;23;20159;-85
2023/12/11 04:48:52;;;;;;;18.50;4.20;;;8.20;99.90;;;;;;6157037;23;20193;-83
2023/12/11 04:51:18;;;;;;;15.00;4.20;;;8.20;99.90;;;;;;6157193;23;20159;-84
2023/12/11 04:53:44;;;;;;;18.27;4.40;;;8.20;99.90;;;;;;6156771;23;20187;-85
2023/12/11 04:56:11;;;;;;;16.15;3.42;;;8.10;99.90;;;;;;6156891;23;20531;-83
2023/12/11 04:58:37;;;;;;;17.17;4.20;;;8.10;99.90;;;;;;6158640;23;20547;-85
2023/12/11 05:01:03;;;;;;;22.73;4.57;;;8.00;99.90;;;;;;6156955;23;20237;-84
2023/12/11 05:03:29;;;;;;;19.98;4.65;;;8.00;99.90;;;;;;6156907;23;20230;-83
2023/12/11 05:05:55;;;;;;;24.00;4.88;;;8.00;99.90;;;;;;6158142;23;20151;-84
2023/12/11 05:08:21;;;;;;;25.70;5.00;;;8.00;99.90;;;;;;6156615;23;20216;-84
2023/12/11 05:10:47;;;;;;;15.98;3.83;;;8.00;99.90;;;;;;6156842;23;20159;-85
2023/12/11 05:13:12;;;;;;;21.90;4.77;;;8.00;99.90;;;;;;6156978;23;20254;-84
2023/12/11 05:15:38;;;;;;;26.98;5.10;;;7.90;99.90;;;;;;6156672;23;20156;-84
2023/12/11 05:18:04;;;;;;;20.07;5.07;;;8.00;99.90;;;;;;6156559;23;20465;-84
2023/12/11 05:20:30;;;;;;;25.70;4.93;;;8.00;99.90;;;;;;6157023;23;20175;-84
2023/12/11 05:22:55;;;;;;;20.35;4.72;;;7.90;99.90;;;;;;6157790;23;20512;-84
2023/12/11 05:25:21;;;;;;;30.13;4.88;;;7.90;99.90;;;;;;6156425;23;20202;-86
2023/12/11 05:27:49;;;;;;;29.52;5.25;;;7.90;99.90;;;;;;6156638;23;20159;-84
2023/12/11 05:30:15;;;;;;;23.47;4.57;;;7.90;99.90;;;;;;6156713;23;20238;-83
2023/12/11 05:32:42;;;;;;;27.90;4.68;;;7.90;99.90;;;;;;6156642;23;20166;-83
2023/12/11 05:35:08;;;;;;;21.23;4.53;;;7.90;99.90;;;;;;6156478;23;20207;-84
2023/12/11 05:37:35;;;;;;;25.77;5.03;;;7.90;99.90;;;;;;6155396;23;20163;-82
2023/12/11 05:40:00;;;;;;;29.55;5.47;;;8.00;99.90;;;;;;6131676;23;20151;-84
2023/12/11 05:42:26;;;;;;;20.90;4.93;;;8.00;99.90;;;;;;6132059;23;20451;-83
2023/12/11 05:44:52;;;;;;;19.03;4.03;;;8.10;99.90;;;;;;6156847;23;20160;-84
2023/12/11 05:47:18;;;;;;;22.42;4.22;;;8.20;99.90;;;;;;6156386;23;20574;-83
2023/12/11 05:49:43;;;;;;;21.83;4.80;;;8.30;99.90;;;;;;6158217;23;20175;-85
2023/12/11 05:52:13;;;;;;;18.13;3.97;;;8.30;99.90;;;;;;6158275;23;20191;-82
2023/12/11 05:54:38;;;;;;;21.30;4.18;;;8.30;99.90;;;;;;6157815;23;20175;-84
2023/12/11 05:57:04;;;;;;;22.13;4.10;;;8.40;99.90;;;;;;6156265;23;20162;-84
2023/12/11 05:59:30;;;;;;;16.88;3.92;;;8.50;99.90;;;;;;6156411;23;20148;-87
2023/12/11 06:01:56;;;;;;;21.53;4.17;;;8.50;99.90;;;;;;6156503;23;20189;-84
2023/12/11 06:04:21;;;;;;;20.65;3.88;;;8.50;99.90;;;;;;6156570;23;20242;-84
2023/12/11 06:06:48;;;;;;;20.63;4.63;;;8.40;99.90;;;;;;6156511;23;20210;-84
2023/12/11 06:09:14;;;;;;;16.10;3.90;;;8.40;99.90;;;;;;6156077;23;20272;-85
2023/12/11 06:11:40;;;;;;;21.03;3.67;;;8.40;99.90;;;;;;6157915;23;20555;-85
2023/12/11 06:14:06;;;;;;;23.13;4.50;;;8.30;99.90;;;;;;6155970;23;20250;-84
2023/12/11 06:16:33;;;;;;;24.33;4.03;;;8.30;99.90;;;;;;6156346;23;20179;-84
2023/12/11 06:18:59;;;;;;;24.03;4.70;;;8.20;99.90;;;;;;6156247;23;20187;-84
2023/12/11 06:21:25;;;;;;;18.65;3.30;;;8.20;99.90;;;;;;6131094;23;20171;-84
2023/12/11 06:23:51;;;;;;;18.03;4.07;;;8.20;99.90;;;;;;6130516;23;20210;-84
2023/12/11 06:26:34;;;;;;;20.65;3.50;;;8.10;99.90;;;;;;6130913;23;20167;-84
2023/12/11 06:29:00;;;;;;;14.83;3.00;;;8.00;99.90;;;;;;6154990;23;20191;-84
2023/12/11 06:31:30;;;;;;;21.07;3.83;;;8.00;99.90;;;;;;6155507;23;20159;-85
2023/12/11 06:33:57;;;;;;;15.90;4.00;;;8.00;99.90;;;;;;6155160;23;20202;-86
2023/12/11 06:36:23;;;;;;;15.20;3.78;;;7.90;99.90;;;;;;6131144;23;20242;-84
2023/12/11 06:38:52;;;;;;;25.63;4.53;;;7.90;99.90;;;;;;6155907;23;20530;-83
2023/12/11 06:41:18;;;;;;;21.63;3.90;;;7.90;99.90;;;;;;6155889;23;20163;-84
2023/12/11 06:43:49;;;;;;;23.60;3.90;;;8.00;99.90;;;;;;6131505;23;20159;-83
2023/12/11 06:46:15;;;;;;;20.53;3.33;;;8.00;99.90;;;;;;6155515;23;20530;-84
2023/12/11 06:48:44;;;;;;;21.43;3.50;;;8.10;99.90;;;;;;6157259;23;20202;-84
2023/12/11 06:51:10;;;;;;;24.98;3.75;;;8.10;99.90;;;;;;6155933;23;20250;-83
2023/12/11 06:53:36;;;;;;;20.33;3.27;;;8.10;99.90;;;;;;6155723;23;20191;-84
2023/12/11 06:56:02;;;;;;;15.43;3.67;;;8.00;99.90;;;;;;6157228;23;20152;-85
2023/12/11 06:58:30;;;;;;;17.23;4.00;;;8.00;99.90;;;;;;6157786;23;20159;-86
2023/12/11 07:00:55;;;;;;;20.10;3.30;;;8.00;99.90;;;;;;6156786;23;20162;-84
2023/12/11 07:03:21;;;;;;;25.37;3.80;;;8.00;99.90;;;;;;6156325;23;20475;-85
2023/12/11 07:05:47;;;;;;;19.53;3.47;;;7.90;99.90;;;;;;6156316;23;20156;-87
2023/12/11 07:08:15;;;;;;;26.10;5.13;;;7.80;99.90;;;;;;6155700;23;20183;-86
2023/12/11 07:10:41;;;;;;;24.57;4.10;;;7.80;99.90;;;;;;6156334;23;20159;-87
2023/12/11 07:13:06;;;;;;;15.63;3.50;;;7.70;99.90;;;;;;6156562;23;20463;-87
2023/12/11 07:15:33;;;;;;;27.23;4.97;;;7.70;99.90;;;;;;6156424;23;20167;-87
2023/12/11 07:18:01;;;;;;;29.33;4.20;;;7.70;99.90;;;;;;6156132;23;20495;-88
2023/12/11 07:20:27;;;;;;;20.07;3.77;;;7.70;99.90;;;;;;6156516;23;20152;-87
2023/12/11 07:22:55;;;;;;;26.30;3.50;;;7.70;99.90;;;;;;6156147;23;20166;-90
2023/12/11 07:25:20;;;;;;;19.07;3.87;;;7.70;99.90;;;;;;6157391;23;20159;-88
2023/12/11 07:27:48;;;;;;;23.17;4.23;;;7.70;99.90;;;;;;6158136;23;20163;-89
2023/12/11 07:30:14;;;;;;;22.27;3.43;;;7.70;99.90;;;;;;6158088;23;20187;-89
2023/12/11 07:32:41;;;;;;;29.80;4.97;;;7.70;99.90;;;;;;6158027;23;20160;-89
2023/12/11 07:35:11;;;;;;;25.70;3.90;;;7.70;99.90;;;;;;6133328;23;20230;-90
2023/12/11 07:37:41;;;;;;;26.33;4.10;;;7.60;99.90;;;;;;6157986;23;20158;-90
2023/12/11 07:40:08;;;;;;;21.20;3.50;;;7.70;99.90;;;;;;6159423;23;20139;-89
2023/12/11 07:42:34;;;;;;;20.13;4.03;;;7.70;99.90;;;;;;6157830;23;20239;-90
2023/12/11 07:44:59;;;;;;;21.63;3.47;;;7.80;99.90;;;;;;6158254;23;20195;-89
2023/12/11 07:47:27;;;;;;;21.50;2.93;;;7.80;99.90;;;;;;6133511;23;20571;-90
2023/12/11 07:49:53;;;;;;;17.33;3.13;;;7.80;99.90;;;;;;6158204;23;20245;-92
2023/12/11 07:52:19;;;;;;;15.68;2.83;;;7.70;99.90;;;;;;6157792;23;20535;-89
2023/12/11 07:54:44;;;;;;;18.93;3.27;;;7.70;99.90;;;;;;6157666;23;20450;-88
2023/12/11 07:57:10;;;;;;;18.70;3.58;;;7.70;99.90;;;;;;6157762;23;20559;-89
2023/12/11 07:59:46;;;;;;;13.93;3.00;;;7.70;99.90;;;;;;6158069;23;20471;-88
2023/12/11 08:02:12;;;;;;;25.57;3.27;;;7.70;99.90;;;;;;6158508;23;20147;-87
2023/12/11 08:04:39;;;;;;;14.50;3.17;;;7.70;99.90;;;;;;6133196;23;20159;-89
2023/12/11 08:07:05;;;;;;;27.15;4.13;;;7.70;99.90;;;;;;6133296;23;20190;-88
2023/12/11 08:09:39;;;;;;;23.53;3.80;;;7.70;99.90;;;;;;6159048;23;20183;-88
2023/12/11 08:12:05;;;;;;;23.63;4.03;;;7.70;99.90;;;;;;6157775;23;20158;-88
2023/12/11 08:14:32;;;;;;;28.70;4.22;;;7.60;99.90;;;;;;6157932;23;20186;-89
2023/12/11 08:16:58;;;;;;;19.50;3.70;;;7.70;99.90;;;;;;6157608;23;20159;-88
2023/12/11 08:19:25;;;;;;;16.77;3.20;;;7.70;99.90;;;;;;6157850;23;20163;-90
2023/12/11 08:21:52;;;;;;;16.60;3.00;;;7.60;99.90;;;;;;6157780;23;20226;-88
2023/12/11 08:24:18;;;;;;;24.77;4.27;;;7.60;99.90;;;;;;6158964;23;20177;-89
2023/12/11 08:26:44;;;;;;;25.07;3.33;;;7.60;99.90;;;;;;6157905;23;20842;-88
2023/12/11 08:29:17;;;;;;;20.60;3.33;;;7.60;99.90;;;;;;6157270;23;20191;-90
2023/12/11 08:31:43;;;;;;;21.83;3.70;;;7.60;99.90;;;;;;6157555;23;20152;-88
2023/12/11 08:34:09;;;;;;;20.43;3.03;;;7.60;99.90;;;;;;6157335;23;20229;-89
2023/12/11 08:36:35;;;;;;;21.23;3.30;;;7.60;99.90;;;;;;6132539;23;20589;-90
2023/12/11 08:39:03;;;;;;;28.50;3.83;;;7.60;99.90;;;;;;6157337;23;20191;-89
2023/12/11 08:41:29;;;;;;;16.77;3.27;;;7.70;99.90;;;;;;6157700;23;20610;-88
2023/12/11 08:43:55;;;;;;;25.10;4.17;;;7.70;99.90;;;;;;6157564;23;20187;-88
2023/12/11 08:46:24;;;;;;;14.50;2.90;;;7.80;99.90;;;;;;6157429;23;20156;-88
2023/12/11 08:48:58;;;;;;;24.27;3.50;;;7.80;99.90;;;;;;6157726;23;20483;-88
2023/12/11 08:51:24;;;;;;;14.13;3.00;;;7.90;99.90;;;;;;6156988;23;20158;-89
2023/12/11 08:53:50;;;;;;;13.57;2.70;;;7.90;99.90;;;;;;6157192;23;20159;-89
2023/12/11 08:56:19;;;;;;;20.70;4.00;;;7.80;99.90;;;;;;6158420;23;20262;-89
2023/12/11 08:58:46;;;;;;;18.00;3.73;;;7.80;99.90;;;;;;6157415;23;20156;-89
2023/12/11 09:01:12;;;;;;;22.40;4.07;;;7.80;99.90;;;;;;6157211;23;20166;-90
2023/12/11 09:03:38;;;;;;;18.03;4.07;;;7.80;99.90;;;;;;6157339;23;20155;-90
2023/12/11 09:06:04;;;;;;;19.40;4.10;;;7.80;99.90;;;;;;6156549;23;20156;-88
2023/12/11 09:08:31;;;;;;;22.13;3.93;;;7.80;99.90;;;;;;6157069;23;20183;-90
2023/12/11 09:10:57;;;;;;;14.70;3.55;;;7.80;99.90;;;;;;6157174;23;20449;-90
2023/12/11 09:13:22;;;;;;;21.98;4.15;;;7.80;99.90;;;;;;6157054;23;20159;-90
2023/12/11 09:15:48;;;;;;;18.48;4.18;;;7.80;99.90;;;;;;6156966;23;20532;-90
2023/12/11 09:18:17;;;;;;;29.23;3.45;;;7.80;99.90;;;;;;6157205;23;20155;-89
2023/12/11 09:20:43;;;;;;;18.10;3.15;;;7.80;99.90;;;;;;6158579;23;20155;-89
2023/12/11 09:23:10;;;;;;;20.50;3.80;;;7.80;99.90;;;;;;6156868;23;20160;-89
2023/12/11 09:25:36;;;;;;;18.83;3.13;;;7.90;99.90;;;;;;6157175;23;20163;-89
2023/12/11 09:28:04;;;;;;;15.68;2.42;;;7.90;99.90;;;;;;6156852;23;20246;-88
2023/12/11 09:30:38;;;;;;;13.80;2.47;;;7.90;99.90;;;;;;6156943;23;20167;-90
2023/12/11 09:33:04;;;;;;;15.32;2.70;;;8.00;99.90;;;;;;6156738;23;20175;-89
2023/12/11 09:35:30;;;;;;;16.08;2.88;;;8.00;99.90;;;;;;6156762;23;20497;-89
2023/12/11 09:37:55;;;;;;;16.17;2.50;;;8.00;99.90;;;;;;6158221;23;20443;-88
2023/12/11 09:40:22;;;;;;;12.63;2.30;;;8.10;99.90;;;;;;6156455;23;20159;-88
2023/12/11 09:42:50;;;;;;;14.43;2.85;;;8.10;99.90;;;;;;6157001;23;20464;-88
2023/12/11 09:45:19;;;;;;;12.70;2.15;;;8.20;99.90;;;;;;6156668;23;20163;-88
2023/12/11 09:47:56;;;;;;;13.30;2.50;;;8.30;99.90;;;;;;6156967;23;20155;-89
2023/12/11 09:50:22;;;;;;;15.25;2.47;;;8.30;99.90;;;;;;6158323;23;20163;-88
2023/12/11 09:52:51;;;;;;;10.38;2.30;;;8.40;99.90;;;;;;6156984;23;20230;-87
2023/12/11 09:55:17;;;;;;;15.20;2.63;;;8.40;99.90;;;;;;6131937;23;20167;-88
2023/12/11 09:57:46;;;;;;;11.30;2.28;;;8.40;99.90;;;;;;6157160;23;20165;-87
2023/12/11 10:00:24;;;;;;;11.45;2.30;;;8.50;99.90;;;;;;6156762;23;20238;-88
2023/12/11 10:02:51;;;;;;;9.45;2.33;;;8.50;99.90;;;;;;6156829;23;20233;-88
2023/12/11 10:05:24;;;;;;;8.95;2.33;;;8.50;99.90;;;;;;6156160;23;20213;-87
2023/12/11 10:07:50;;;;;;;12.35;3.03;;;8.50;99.90;;;;;;6156715;23;20238;-87
2023/12/11 10:10:30;;;;;;;9.18;1.80;;;8.50;99.90;;;;;;6156290;23;20341;-87
2023/12/11 10:12:56;;;;;;;13.65;2.50;;;8.50;99.90;;;;;;6156692;23;20241;-87
2023/12/11 10:15:25;;;;;;;10.80;2.05;;;8.50;99.90;;;;;;6156416;23;20214;-87
2023/12/11 10:18:06;;;;;;;14.43;2.63;;;8.50;99.90;;;;;;6156659;23;20165;-87
2023/12/11 10:20:34;;;;;;;15.02;2.20;;;8.50;99.90;;;;;;6156738;23;20563;-86
2023/12/11 10:23:18;;;;;;;9.52;2.25;;;8.40;99.90;;;;;;6156712;23;20167;-87
2023/12/11 10:26:05;;;;;;;13.98;2.75;;;8.40;99.90;;;;;;6156705;23;20625;-87
2023/12/11 10:28:31;;;;;;;12.10;2.28;;;8.40;99.90;;;;;;6156459;23;20183;-88
2023/12/11 10:31:02;;;;;;;15.57;2.72;;;8.40;99.90;;;;;;6156417;23;20213;-88
2023/12/11 10:33:33;;;;;;;15.40;3.08;;;8.40;99.90;;;;;;6156735;23;20158;-87
2023/12/11 10:36:11;;;;;;;13.18;2.80;;;8.40;99.90;;;;;;6127077;23;20179;-88
2023/12/11 10:38:38;;;;;;;13.02;2.95;;;8.40;99.90;;;;;;6126489;23;20198;-88
2023/12/11 10:41:05;;;;;;;13.32;2.67;;;8.40;99.90;;;;;;6126829;23;20647;-89
2023/12/11 10:43:44;;;;;;;13.15;2.28;;;8.40;99.90;;;;;;6126914;23;20446;-89
2023/12/11 10:46:11;;;;;;;11.10;2.27;;;8.40;99.90;;;;;;6127979;23;20453;-90
2023/12/11 10:48:37;;;;;;;17.23;2.47;;;8.40;99.90;;;;;;6127008;23;20227;-92
2023/12/11 10:51:07;;;;;;;18.70;2.88;;;8.40;99.90;;;;;;6127072;23;20164;-89
2023/12/11 10:53:36;;;;;;;10.57;2.00;;;8.40;99.90;;;;;;6126805;23;20668;-89
2023/12/11 10:56:03;;;;;;;15.05;2.42;;;8.40;99.90;;;;;;6127227;23;20567;-89
2023/12/11 10:58:29;;;;;;;15.32;3.03;;;8.50;99.90;;;;;;6102326;23;20167;-90
2023/12/11 11:01:01;;;;;;;8.88;2.03;;;8.40;99.90;;;;;;6103670;23;20166;-90
2023/12/11 11:03:30;;;;;;;13.52;2.80;;;8.40;99.90;;;;;;6128970;23;20160;-89
2023/12/11 11:05:57;;;;;;;10.73;3.05;;;8.40;99.90;;;;;;6128546;23;20156;-90
2023/12/11 11:09:00;;;;;;;15.30;3.10;;;8.40;99.90;;;;;;6128629;23;20486;-89
2023/12/11 11:11:32;;;;;;;12.25;2.55;;;8.40;99.90;;;;;;6104448;23;20213;-90
2023/12/11 11:14:24;;;;;;;16.73;2.95;;;8.40;99.90;;;;;;6128878;23;20152;-90
2023/12/11 11:16:54;;;;;;;17.33;2.78;;;8.40;99.90;;;;;;6128494;23;20164;-91
2023/12/11 11:19:20;;;;;;;11.32;2.20;;;8.40;99.90;;;;;;6128539;23;20182;-90
2023/12/11 11:22:03;;;;;;;14.93;2.40;;;8.30;99.90;;;;;;6128773;23;20631;-90
2023/12/11 11:24:30;;;;;;;14.73;2.45;;;8.40;99.90;;;;;;6128483;23;20160;-90
2023/12/11 11:26:57;;;;;;;10.55;1.90;;;8.30;99.90;;;;;;6128707;23;20156;-90
2023/12/11 11:29:42;;;;;;;14.07;3.00;;;8.40;99.90;;;;;;6128732;23;20188;-89
2023/12/11 11:32:12;;;;;;;12.80;2.60;;;8.40;99.90;;;;;;6129075;23;20222;-89
2023/12/11 11:34:41;;;;;;;10.98;2.40;;;8.30;99.90;;;;;;6142773;23;20615;-91
2023/12/11 11:37:13;;;;;;;14.30;2.60;;;8.40;99.90;;;;;;6133352;23;20159;-90
2023/12/11 11:40:05;;;;;;;8.97;2.50;;;8.40;99.90;;;;;;6157972;23;20214;-89
2023/12/11 11:42:33;;;;;;;17.52;2.85;;;8.40;99.90;;;;;;6133397;23;20183;-90
2023/12/11 11:45:04;;;;;;;11.57;2.72;;;8.40;99.90;;;;;;6133476;23;20611;-90
2023/12/11 11:47:31;;;;;;;12.73;2.40;;;8.30;99.90;;;;;;6157693;23;20190;-89
2023/12/11 11:50:09;;;;;;;8.53;2.37;;;8.30;99.90;;;;;;6157551;23;20199;-90
2023/12/11 11:52:38;;;;;;;15.77;2.55;;;8.30;99.90;;;;;;6157809;23;20151;-91
2023/12/11 11:55:20;;;;;;;14.32;2.60;;;8.30;99.90;;;;;;6157593;23;20179;-89
2023/12/11 11:57:46;;;;;;;10.33;2.13;;;8.30;99.90;;;;;;6157889;23;20166;-90
2023/12/11 12:00:13;;;;;;;11.20;2.77;;;8.30;99.90;;;;;;6157725;23;20159;-91
2023/12/11 12:02:38;;;;;;;14.23;2.45;;;8.40;99.90;;;;;;6157853;23;20156;-91
2023/12/11 12:05:11;;;;;;;14.20;2.83;;;8.40;99.90;;;;;;6158037;23;20606;-90
2023/12/11 12:07:40;;;;;;;12.90;2.53;;;8.30;99.90;;;;;;6157873;23;20160;-90
2023/12/11 12:10:17;;;;;;;11.95;2.83;;;8.30;99.90;;;;;;6157400;23;20195;-90
2023/12/11 12:12:49;;;;;;;14.40;2.50;;;8.30;99.90;;;;;;6157032;23;20257;-89
2023/12/11 12:15:16;;;;;;;29.40;2.70;;;8.30;99.90;;;;;;6157591;23;20512;-89
2023/12/11 12:17:50;;;;;;;13.30;2.58;;;8.30;99.90;;;;;;6157368;23;20155;-89
2023/12/11 12:20:36;;;;;;;7.15;2.28;;;8.30;99.90;;;;;;6157865;23;20162;-91
2023/12/11 12:23:05;;;;;;;9.52;2.13;;;8.30;99.90;;;;;;6157767;23;20155;-90
2023/12/11 12:25:42;;;;;;;8.40;1.97;;;8.30;99.90;;;;;;6157152;23;20163;-90
2023/12/11 12:28:14;;;;;;;5.93;2.03;;;8.30;99.90;;;;;;6157366;23;20642;-90
2023/12/11 12:30:41;;;;;;;8.70;2.45;;;8.30;99.90;;;;;;6158888;23;20567;-89
2023/12/11 12:33:09;;;;;;;8.83;2.50;;;8.30;99.90;;;;;;6157753;23;20164;-89
2023/12/11 12:35:36;;;;;;;9.47;2.20;;;8.30;99.90;;;;;;6157223;23;20619;-90
2023/12/11 12:38:05;;;;;;;6.07;1.63;;;8.40;99.90;;;;;;6157474;23;20155;-91
2023/12/11 12:40:34;;;;;;;6.78;1.95;;;8.40;99.90;;;;;;6157247;23;20156;-88
2023/12/11 12:43:11;;;;;;;6.97;2.15;;;8.50;99.90;;;;;;6157710;23;20163;-90
2023/12/11 12:45:38;;;;;;;6.85;1.80;;;8.50;99.90;;;;;;6159107;23;20544;-89
2023/12/11 12:48:05;;;;;;;3.97;1.63;;;8.60;99.90;;;;;;6157975;23;20159;-88
2023/12/11 12:50:31;;;;;;;9.43;1.48;;;8.50;99.90;;;;;;6158095;23;20246;-89